Time;durP1;ratioP1;P1;durP2;ratioP2;P2;SDS_P1;SDS_P2;PMS_P1;PMS_P2;Temp;Humidity;BMP_temperature;BMP_pressure;BME280_temperature;BME280_humidity;BME280_pressure;Samples;Min_cycle;Max_cycle;Signal;HPM_P1;HPM_P2
2022/01/14 00:00:56;;;;;;;17.33;12.13;;;1.10;99.90;;;1.55;100.00;-19779.66;5011032;28;20273;-70
2022/01/14 00:03:24;;;;;;;19.43;12.27;;;1.10;99.90;;;1.61;100.00;-19781.53;5010987;28;20230;-70
2022/01/14 00:05:53;;;;;;;20.33;13.03;;;1.10;99.90;;;1.74;100.00;-19785.97;5011324;28;20213;-70
2022/01/14 00:08:21;;;;;;;19.47;12.27;;;1.10;99.90;;;1.63;100.00;-19782.22;5011794;28;20301;-68
2022/01/14 00:10:50;;;;;;;20.93;13.63;;;1.10;99.90;;;1.57;100.00;-19780.16;5010157;28;20726;-69
2022/01/14 00:13:42;;;;;;;17.53;12.63;;;1.10;99.90;;;1.73;100.00;-19785.63;4993454;28;20231;-69
2022/01/14 00:16:11;;;;;;;21.10;12.63;;;1.10;99.90;;;1.62;100.00;-19782.06;4995609;28;20223;-69
2022/01/14 00:18:39;;;;;;;19.53;12.47;;;1.10;99.90;;;1.52;100.00;-19778.63;4995165;28;20251;-68
2022/01/14 00:21:08;;;;;;;21.63;13.07;;;1.10;99.90;;;1.54;100.00;-19779.31;4994703;28;20294;-69
2022/01/14 00:23:39;;;;;;;20.60;12.57;;;1.00;99.90;;;1.48;100.00;-19777.09;4995475;28;20207;-68
2022/01/14 00:31:43;;;;;;;21.13;13.73;;;1.00;99.90;;;1.45;100.00;-19776.06;4994659;28;20241;-69
2022/01/14 00:34:11;;;;;;;19.37;12.57;;;1.00;99.90;;;1.45;100.00;-19776.25;5004061;28;20736;-68
2022/01/14 00:36:41;;;;;;;22.40;14.13;;;1.00;99.90;;;1.47;100.00;-19776.91;5014225;28;20249;-67
2022/01/14 00:39:12;;;;;;;20.87;13.00;;;1.00;99.90;;;1.45;100.00;-19776.06;5014443;28;20210;-68
2022/01/14 00:41:41;;;;;;;19.47;12.97;;;0.90;99.90;;;1.40;100.00;-19774.53;5016321;28;20187;-70
2022/01/14 00:44:13;;;;;;;19.47;13.10;;;0.90;99.90;;;1.50;100.00;-19777.78;5014115;28;20223;-70
2022/01/14 00:46:44;;;;;;;28.27;17.53;;;0.90;99.90;;;1.53;100.00;-19778.97;5014045;28;20649;-68
2022/01/14 00:49:14;;;;;;;27.17;17.50;;;0.90;99.90;;;1.60;100.00;-19781.19;5013955;28;20227;-69
2022/01/14 00:51:44;;;;;;;24.50;15.70;;;0.90;99.90;;;1.56;100.00;-19780.00;5013730;28;20230;-68
2022/01/14 00:54:13;;;;;;;24.60;16.00;;;1.00;99.90;;;1.51;100.00;-19778.28;5013840;28;20250;-67
2022/01/14 00:57:02;;;;;;;23.73;15.33;;;0.90;99.90;;;1.52;100.00;-19778.63;5014740;28;20201;-69
2022/01/14 00:59:29;;;;;;;22.40;14.67;;;0.90;99.90;;;1.48;100.00;-19777.25;5014707;28;20254;-67
2022/01/14 01:02:01;;;;;;;22.37;14.60;;;0.90;99.90;;;1.49;100.00;-19777.44;5014330;28;20230;-67
2022/01/14 01:04:35;;;;;;;22.87;14.30;;;0.90;99.90;;;1.49;100.00;-19777.44;5013959;28;20254;-68
2022/01/14 01:07:07;;;;;;;23.37;13.83;;;0.90;99.90;;;1.35;100.00;-19772.66;5013909;28;20314;-67
2022/01/14 01:09:38;;;;;;;19.27;12.97;;;0.90;99.90;;;1.33;100.00;-19772.13;5014125;28;20312;-69
2022/01/14 01:12:13;;;;;;;21.47;13.67;;;0.80;99.90;;;1.27;100.00;-19769.91;5013885;28;20187;-70
2022/01/14 01:14:48;;;;;;;23.07;14.10;;;0.80;99.90;;;1.40;100.00;-19774.34;5014146;28;20228;-70
2022/01/14 01:17:18;;;;;;;21.60;13.70;;;0.80;99.90;;;1.34;100.00;-19772.47;5013721;28;20234;-68
2022/01/14 01:19:46;;;;;;;23.23;13.53;;;0.80;99.90;;;1.32;100.00;-19771.78;5013064;28;20244;-68
2022/01/14 01:22:16;;;;;;;23.13;13.80;;;0.80;99.90;;;1.32;100.00;-19771.78;5012879;28;20231;-68
2022/01/14 01:24:44;;;;;;;25.27;15.70;;;0.80;99.90;;;1.39;100.00;-19774.19;5013131;28;20280;-69
2022/01/14 01:27:14;;;;;;;25.37;15.00;;;0.80;99.90;;;1.54;100.00;-19779.16;5013194;28;20250;-69
2022/01/14 01:29:53;;;;;;;26.20;15.07;;;0.80;99.90;;;1.50;100.00;-19777.78;5013743;28;20681;-67
2022/01/14 01:32:22;;;;;;;20.83;13.60;;;0.90;99.90;;;1.27;100.00;-19770.06;5013274;28;20241;-68
2022/01/14 01:34:50;;;;;;;24.50;13.87;;;0.80;99.90;;;1.17;100.00;-19766.66;5012889;28;20657;-69
2022/01/14 01:37:19;;;;;;;20.13;13.03;;;0.70;99.90;;;1.15;100.00;-19765.97;5012918;28;20254;-68
2022/01/14 01:39:47;;;;;;;20.87;13.50;;;0.70;99.90;;;1.15;100.00;-19765.97;5013244;28;20848;-68
2022/01/14 01:42:23;;;;;;;23.57;14.50;;;0.60;99.90;;;1.19;100.00;-19767.34;5013187;28;20593;-69
2022/01/14 01:44:51;;;;;;;23.07;14.07;;;0.60;99.90;;;1.22;100.00;-19768.38;5013429;28;20233;-67
2022/01/14 01:47:22;;;;;;;21.00;13.60;;;0.60;99.90;;;1.17;100.00;-19766.66;5013516;28;20638;-70
2022/01/14 01:49:50;;;;;;;21.03;13.73;;;0.60;99.90;;;1.15;100.00;-19766.16;5013098;28;20230;-69
2022/01/14 01:52:19;;;;;;;24.00;14.30;;;0.70;99.90;;;1.07;100.00;-19763.25;5013017;28;20230;-68
2022/01/14 01:54:47;;;;;;;22.53;13.90;;;0.60;99.90;;;1.08;100.00;-19763.59;5012882;28;20269;-68
2022/01/14 01:57:15;;;;;;;23.47;13.23;;;0.60;99.90;;;1.11;100.00;-19764.78;5013220;28;20268;-69
2022/01/14 01:59:44;;;;;;;22.43;13.73;;;0.60;99.90;;;1.07;100.00;-19763.41;5013694;28;20199;-68
2022/01/14 02:02:12;;;;;;;23.60;14.33;;;0.60;99.90;;;1.18;100.00;-19767.00;5012762;28;20276;-68
2022/01/14 02:04:40;;;;;;;22.93;13.37;;;0.60;99.90;;;1.18;100.00;-19767.00;5012581;28;20230;-68
2022/01/14 02:07:08;;;;;;;23.63;15.03;;;0.60;99.90;;;1.23;100.00;-19768.88;5012971;28;20222;-69
2022/01/14 02:09:37;;;;;;;26.30;15.80;;;0.60;99.90;;;1.35;100.00;-19772.81;5013193;28;20254;-68
2022/01/14 02:12:10;;;;;;;23.70;14.47;;;0.70;99.90;;;1.12;100.00;-19765.13;5012941;28;20203;-69
2022/01/14 02:14:56;;;;;;;20.87;13.93;;;0.70;99.90;;;1.06;100.00;-19762.91;5013525;28;20573;-69
2022/01/14 02:17:35;;;;;;;26.20;15.23;;;0.60;99.90;;;1.13;100.00;-19765.47;5012854;28;20245;-69
2022/01/14 02:23:01;;;;;;;25.77;15.40;;;0.60;99.90;;;1.18;100.00;-19767.16;5012208;28;20306;-69
2022/01/14 02:25:29;;;;;;;22.67;13.47;;;0.60;99.90;;;1.17;100.00;-19766.84;5012447;28;20232;-67
2022/01/14 02:28:01;;;;;;;24.37;14.23;;;0.60;99.90;;;1.33;100.00;-19771.97;5012535;28;20226;-68
2022/01/14 02:30:32;;;;;;;24.57;14.73;;;0.60;99.90;;;1.27;100.00;-19770.06;5012290;28;20243;-69
2022/01/14 02:33:00;;;;;;;23.60;14.33;;;0.70;99.90;;;1.12;100.00;-19765.13;5012281;28;20649;-69
2022/01/14 02:35:32;;;;;;;24.00;15.20;;;0.60;99.90;;;1.25;100.00;-19769.41;4993089;28;20724;-69
2022/01/14 02:38:00;;;;;;;22.20;14.87;;;0.60;99.90;;;1.16;100.00;-19766.31;4991724;28;20231;-68
2022/01/14 02:40:29;;;;;;;23.17;14.07;;;0.60;99.90;;;1.25;100.00;-19769.56;4992575;28;20255;-69
2022/01/14 02:43:00;;;;;;;22.57;14.47;;;0.60;99.90;;;1.20;100.00;-19767.84;4992531;28;20721;-68
2022/01/14 02:45:31;;;;;;;23.03;13.73;;;0.60;99.90;;;1.02;100.00;-19761.53;4992369;28;20227;-68
2022/01/14 02:48:01;;;;;;;23.80;14.73;;;0.50;99.90;;;0.94;100.00;-19758.78;4992526;28;20196;-68
2022/01/14 02:50:39;;;;;;;24.67;15.37;;;0.40;99.90;;;0.91;100.00;-19757.78;4992247;28;20210;-68
2022/01/14 02:53:25;;;;;;;26.30;15.80;;;0.40;99.90;;;0.84;100.00;-19755.38;4991503;28;20319;-69
2022/01/14 02:55:56;;;;;;;27.67;17.90;;;0.40;99.90;;;1.00;100.00;-19760.84;4991105;28;20274;-66
2022/01/14 02:58:29;;;;;;;29.57;18.30;;;0.40;99.90;;;0.93;100.00;-19758.47;4991396;28;20310;-68
2022/01/14 03:01:02;;;;;;;28.90;18.77;;;0.40;99.90;;;0.85;100.00;-19755.72;4992291;28;20223;-68
2022/01/14 03:03:32;;;;;;;28.27;19.00;;;0.40;99.90;;;0.84;100.00;-19755.38;4992419;28;20227;-67
2022/01/14 03:06:04;;;;;;;29.57;19.83;;;0.40;99.90;;;0.84;100.00;-19755.38;4992312;28;20219;-69
2022/01/14 03:08:34;;;;;;;31.70;22.33;;;0.30;99.90;;;0.85;100.00;-19755.88;4992714;28;20276;-69
2022/01/14 03:11:09;;;;;;;29.33;19.90;;;0.30;99.90;;;1.04;100.00;-19762.22;4991937;28;20311;-68
2022/01/14 03:13:38;;;;;;;27.73;17.53;;;0.40;99.90;;;0.98;100.00;-19760.16;4992019;28;20309;-67
2022/01/14 03:16:07;;;;;;;29.83;18.20;;;0.40;99.90;;;1.00;100.00;-19760.84;4992184;28;20237;-68
2022/01/14 03:18:42;;;;;;;29.00;18.60;;;0.40;99.90;;;0.94;100.00;-19758.78;4991968;28;20256;-68
2022/01/14 03:21:13;;;;;;;25.00;16.20;;;0.40;99.90;;;0.90;100.00;-19757.59;4992265;28;20601;-68
2022/01/14 03:23:47;;;;;;;22.80;15.17;;;0.40;99.90;;;0.86;100.00;-19756.06;4992929;28;20235;-68
2022/01/14 03:26:18;;;;;;;27.13;15.20;;;0.30;99.90;;;0.79;100.00;-19753.84;4993272;28;20210;-68
2022/01/14 03:28:49;;;;;;;24.37;15.10;;;0.30;99.90;;;0.88;100.00;-19756.75;5011501;28;20322;-68
2022/01/14 03:31:17;;;;;;;22.47;14.37;;;0.30;99.90;;;0.83;100.00;-19755.03;5011490;28;20272;-68
2022/01/14 03:33:45;;;;;;;23.47;15.07;;;0.30;99.90;;;0.77;100.00;-19752.97;5005634;28;20310;-68
2022/01/14 03:36:15;;;;;;;23.40;15.30;;;0.30;99.90;;;0.88;100.00;-19756.75;4991928;28;20257;-69
2022/01/14 03:38:43;;;;;;;25.63;14.70;;;0.30;99.90;;;0.84;100.00;-19755.56;4992378;28;20298;-68
2022/01/14 03:41:11;;;;;;;25.07;15.93;;;0.30;99.90;;;0.84;100.00;-19755.38;4991483;28;20233;-68
2022/01/14 03:43:41;;;;;;;25.17;15.27;;;0.30;99.90;;;0.87;100.00;-19756.56;4991655;28;20317;-68
2022/01/14 03:46:09;;;;;;;23.13;14.97;;;0.30;99.90;;;0.85;100.00;-19755.72;4991487;28;20233;-68
2022/01/14 03:48:37;;;;;;;27.50;15.67;;;0.30;99.90;;;0.73;100.00;-19751.63;4992688;28;20254;-68
2022/01/14 03:51:05;;;;;;;27.30;16.37;;;0.30;99.90;;;0.66;100.00;-19749.38;4995096;28;20214;-67
2022/01/14 03:53:35;;;;;;;28.67;17.73;;;0.30;99.90;;;0.75;100.00;-19752.28;4995772;28;20205;-69
2022/01/14 03:56:03;;;;;;;33.60;23.47;;;0.20;99.90;;;0.82;100.00;-19754.69;4994862;28;20242;-66
2022/01/14 03:58:40;;;;;;;33.20;21.87;;;0.30;99.90;;;0.92;100.00;-19758.13;4995264;28;20733;-68
2022/01/14 04:01:09;;;;;;;31.13;19.50;;;0.30;99.90;;;1.05;100.00;-19762.56;4995102;28;20227;-68
2022/01/14 04:03:38;;;;;;;28.93;19.30;;;0.30;99.90;;;0.87;100.00;-19756.41;4995521;28;20315;-68
2022/01/14 04:06:06;;;;;;;28.37;17.67;;;0.30;99.90;;;0.95;100.00;-19759.31;4995012;28;20668;-69
2022/01/14 04:08:36;;;;;;;27.30;17.07;;;0.40;99.90;;;0.93;100.00;-19758.63;4995810;28;20210;-68
2022/01/14 04:11:05;;;;;;;25.70;16.40;;;0.40;99.90;;;0.89;100.00;-19757.25;4994796;28;20317;-68
2022/01/14 04:13:43;;;;;;;27.57;17.57;;;0.40;99.90;;;0.86;100.00;-19756.06;4995263;28;20310;-68
2022/01/14 04:16:12;;;;;;;28.87;17.33;;;0.40;99.90;;;0.85;100.00;-19755.88;4994943;28;20231;-61
2022/01/14 04:18:41;;;;;;;27.33;16.63;;;0.30;99.90;;;0.82;100.00;-19754.88;4995130;28;20263;-60
2022/01/14 04:21:09;;;;;;;29.10;17.13;;;0.30;99.90;;;0.86;100.00;-19756.22;4994829;28;20754;-62
2022/01/14 04:23:39;;;;;;;25.43;16.37;;;0.30;99.90;;;0.87;100.00;-19756.41;5006167;28;20333;-60
2022/01/14 04:26:07;;;;;;;26.93;16.43;;;0.30;99.90;;;0.94;100.00;-19758.97;5014324;28;20259;-61
2022/01/14 04:28:35;;;;;;;24.53;15.37;;;0.30;99.90;;;0.91;100.00;-19757.78;5014902;28;20222;-61
2022/01/14 04:31:06;;;;;;;27.43;16.50;;;0.30;99.90;;;0.87;100.00;-19756.41;5014372;28;20317;-60
2022/01/14 04:33:35;;;;;;;24.93;15.53;;;0.30;99.90;;;0.83;100.00;-19755.19;5010022;28;20666;-61
2022/01/14 04:36:06;;;;;;;27.90;17.70;;;0.30;99.90;;;0.78;100.00;-19753.31;4994683;28;20625;-61
2022/01/14 04:38:35;;;;;;;30.37;18.00;;;0.30;99.90;;;1.05;100.00;-19762.56;4995150;28;20186;-61
2022/01/14 04:41:05;;;;;;;27.47;17.03;;;0.30;99.90;;;0.93;100.00;-19758.63;4994444;28;20310;-60
2022/01/14 04:43:33;;;;;;;29.30;17.57;;;0.30;99.90;;;0.92;100.00;-19758.28;4994830;28;20237;-61
2022/01/14 04:46:36;;;;;;;28.80;20.17;;;0.40;99.90;;;0.97;100.00;-19759.81;4994462;28;20231;-60
2022/01/14 04:49:04;;;;;;;30.07;20.60;;;0.30;99.90;;;1.09;100.00;-19764.09;4994570;28;20306;-61
2022/01/14 04:51:32;;;;;;;28.90;19.40;;;0.40;99.90;;;1.15;100.00;-19765.97;4994077;28;20255;-61
2022/01/14 04:54:02;;;;;;;28.83;18.07;;;0.40;99.90;;;1.06;100.00;-19762.91;4994294;28;20239;-60
2022/01/14 04:56:33;;;;;;;32.13;18.70;;;0.40;99.90;;;0.96;100.00;-19759.47;4994402;28;20600;-61
2022/01/14 04:59:01;;;;;;;28.37;17.73;;;0.40;99.90;;;0.96;100.00;-19759.47;4994205;28;20233;-60
2022/01/14 05:01:29;;;;;;;28.03;16.93;;;0.40;99.90;;;1.05;100.00;-19762.56;4993086;28;20237;-60
2022/01/14 05:03:58;;;;;;;25.53;17.07;;;0.40;99.90;;;0.91;100.00;-19757.94;4994156;28;20227;-61
2022/01/14 05:06:28;;;;;;;28.73;16.97;;;0.40;99.90;;;0.94;100.00;-19758.78;4994042;28;20247;-62
2022/01/14 05:08:56;;;;;;;25.63;15.67;;;0.30;99.90;;;0.85;100.00;-19755.88;4994313;28;20290;-61
2022/01/14 05:11:37;;;;;;;29.27;17.90;;;0.30;99.90;;;0.85;100.00;-19755.72;4996747;28;20302;-61
2022/01/14 05:14:06;;;;;;;28.03;17.80;;;0.30;99.90;;;1.05;100.00;-19762.56;5013560;28;20309;-60
2022/01/14 05:16:34;;;;;;;28.47;17.37;;;0.30;99.90;;;0.96;100.00;-19759.47;5013313;28;20372;-61
2022/01/14 05:19:02;;;;;;;28.23;17.13;;;0.30;99.90;;;1.01;100.00;-19761.38;5013268;28;20261;-61
2022/01/14 05:21:30;;;;;;;26.33;16.47;;;0.30;99.90;;;1.09;100.00;-19764.09;5013146;28;20728;-62
2022/01/14 05:23:58;;;;;;;27.13;16.33;;;0.40;99.90;;;1.12;100.00;-19764.94;5013520;28;20206;-61
2022/01/14 05:26:27;;;;;;;26.93;16.47;;;0.40;99.90;;;1.09;100.00;-19764.09;5013413;28;20240;-62
2022/01/14 05:28:55;;;;;;;27.53;17.23;;;0.40;99.90;;;0.88;100.00;-19756.75;5013282;28;20581;-62
2022/01/14 05:31:42;;;;;;;28.77;17.17;;;0.30;99.90;;;0.81;100.00;-19754.53;5013035;28;20229;-61
2022/01/14 05:34:10;;;;;;;31.47;18.33;;;0.30;99.90;;;0.85;100.00;-19755.88;5003640;28;20885;-62
2022/01/14 05:36:38;;;;;;;30.57;18.27;;;0.30;99.90;;;0.95;100.00;-19759.13;4993207;28;20317;-61
2022/01/14 05:39:07;;;;;;;28.80;19.37;;;0.30;99.90;;;1.08;100.00;-19763.59;4993368;28;20208;-61
2022/01/14 05:41:36;;;;;;;29.07;20.30;;;0.30;99.90;;;1.06;100.00;-19763.06;4993865;28;20294;-61
2022/01/14 05:44:05;;;;;;;34.47;22.33;;;0.30;99.90;;;1.07;100.00;-19763.25;4993111;28;20306;-60
2022/01/14 05:46:35;;;;;;;26.70;18.17;;;0.40;99.90;;;1.01;100.00;-19761.38;4993223;28;20236;-61
2022/01/14 05:49:03;;;;;;;26.97;16.20;;;0.30;99.90;;;1.04;100.00;-19762.22;4993265;28;20233;-62
2022/01/14 05:51:31;;;;;;;29.13;16.10;;;0.30;99.90;;;1.00;100.00;-19760.84;4993404;28;20254;-60
2022/01/14 05:54:00;;;;;;;29.67;16.57;;;0.30;99.90;;;0.97;100.00;-19759.81;4993068;28;20324;-61
2022/01/14 05:56:28;;;;;;;28.30;15.80;;;0.30;99.90;;;0.96;100.00;-19759.47;4992783;28;20285;-61
2022/01/14 05:58:56;;;;;;;27.00;15.80;;;0.30;99.90;;;0.84;100.00;-19755.38;4992130;28;20231;-62
2022/01/14 06:01:25;;;;;;;30.50;16.80;;;0.30;99.90;;;0.83;100.00;-19755.03;4992075;28;20232;-61
2022/01/14 06:03:54;;;;;;;26.47;15.50;;;0.30;99.90;;;0.81;100.00;-19754.34;4992923;28;20261;-63
2022/01/14 06:06:22;;;;;;;24.97;14.90;;;0.30;99.90;;;0.72;100.00;-19751.28;4992868;28;20298;-61
2022/01/14 06:08:50;;;;;;;26.43;15.70;;;0.20;99.90;;;0.69;100.00;-19750.25;4992867;28;20260;-63
2022/01/14 06:11:19;;;;;;;26.23;15.80;;;0.20;99.90;;;0.62;100.00;-19748.03;4994964;28;20290;-61
2022/01/14 06:13:48;;;;;;;27.30;16.20;;;0.20;99.90;;;0.62;100.00;-19748.03;5012104;28;20265;-61
2022/01/14 06:16:16;;;;;;;29.43;18.60;;;0.10;99.90;;;0.74;100.00;-19752.13;5011858;28;20293;-62
2022/01/14 06:18:45;;;;;;;32.33;20.43;;;0.20;99.90;;;0.73;100.00;-19751.63;5012338;28;20233;-62
2022/01/14 06:21:15;;;;;;;32.97;21.33;;;0.20;99.90;;;0.70;100.00;-19750.59;5012535;28;20305;-62
2022/01/14 06:23:43;;;;;;;33.63;21.60;;;0.20;99.90;;;0.95;100.00;-19759.31;5012277;28;20643;-62
2022/01/14 06:26:23;;;;;;;30.07;18.57;;;0.20;99.90;;;0.88;100.00;-19756.91;5031957;28;20214;-61
2022/01/14 06:28:51;;;;;;;31.97;18.57;;;0.30;99.90;;;0.98;100.00;-19760.34;5031934;28;20253;-62
2022/01/14 06:31:20;;;;;;;33.03;18.73;;;0.30;99.90;;;1.02;100.00;-19761.53;5031944;28;20728;-62
2022/01/14 06:33:48;;;;;;;35.13;20.20;;;0.40;99.90;;;1.04;100.00;-19762.22;5025101;28;20238;-62
2022/01/14 06:36:18;;;;;;;28.43;17.23;;;0.40;99.90;;;0.99;100.00;-19760.50;5012090;28;20700;-60
2022/01/14 06:38:46;;;;;;;30.43;17.70;;;0.40;99.90;;;1.02;100.00;-19761.69;5012084;28;20203;-62
2022/01/14 06:41:14;;;;;;;34.13;19.80;;;0.50;99.90;;;1.12;100.00;-19765.13;5012027;28;20242;-62
2022/01/14 06:43:42;;;;;;;32.93;20.77;;;0.50;99.90;;;1.17;100.00;-19766.66;5012012;28;20781;-61
2022/01/14 06:46:10;;;;;;;31.27;19.73;;;0.60;99.90;;;1.39;100.00;-19774.19;5011895;28;20281;-61
2022/01/14 06:48:38;;;;;;;36.80;21.97;;;0.70;99.90;;;1.53;100.00;-19778.97;5011853;28;20218;-62
2022/01/14 06:51:12;;;;;;;30.00;18.20;;;0.80;99.90;;;1.70;100.00;-19784.78;5012136;28;20619;-62
2022/01/14 06:53:47;;;;;;;28.90;16.80;;;0.90;99.90;;;1.69;100.00;-19784.44;5011919;28;20206;-61
2022/01/14 06:56:15;;;;;;;25.47;16.40;;;0.90;99.90;;;1.77;100.00;-19787.00;5011647;28;20304;-61
2022/01/14 06:58:44;;;;;;;30.57;17.30;;;1.00;99.90;;;1.76;100.00;-19786.66;5011465;28;20281;-60
2022/01/14 07:01:12;;;;;;;27.30;15.67;;;1.00;99.90;;;1.79;100.00;-19787.88;5011396;28;20235;-67
2022/01/14 07:03:40;;;;;;;26.87;17.33;;;1.10;99.90;;;1.80;100.00;-19788.03;5011556;28;20312;-67
2022/01/14 07:06:10;;;;;;;29.87;17.33;;;1.10;99.90;;;1.92;100.00;-19792.13;5012226;28;20246;-66
2022/01/14 07:08:38;;;;;;;29.23;16.83;;;1.20;99.90;;;1.89;100.00;-19791.28;5012981;28;20293;-68
2022/01/14 07:11:07;;;;;;;24.27;15.23;;;1.20;99.90;;;1.96;100.00;-19793.66;5011400;28;20317;-68
2022/01/14 07:13:35;;;;;;;26.13;16.30;;;1.30;99.90;;;2.00;100.00;-19795.03;5031633;28;20317;-61
2022/01/14 07:16:05;;;;;;;25.37;16.77;;;1.30;99.90;;;2.07;100.00;-19797.25;5031510;28;20256;-61
2022/01/14 07:18:33;;;;;;;26.03;15.63;;;1.30;99.90;;;2.18;100.00;-19801.19;5031401;28;20229;-62
2022/01/14 07:21:01;;;;;;;24.83;15.67;;;1.30;99.90;;;2.26;100.00;-19803.75;5031276;28;20206;-62
2022/01/14 07:23:29;;;;;;;28.07;18.20;;;1.40;99.90;;;2.29;100.00;-19804.97;5033875;28;20943;-62
2022/01/14 07:26:00;;;;;;;27.83;16.00;;;1.40;99.90;;;2.17;100.00;-19800.84;5037285;28;20237;-61
2022/01/14 07:28:30;;;;;;;32.83;16.23;;;1.40;99.90;;;2.20;100.00;-19801.88;5037147;28;20225;-61
2022/01/14 07:30:58;;;;;;;28.30;17.40;;;1.50;99.90;;;2.33;100.00;-19806.31;5037706;28;20324;-61
2022/01/14 07:33:26;;;;;;;28.60;16.87;;;1.50;99.90;;;2.34;100.00;-19806.66;5037644;28;20222;-61
2022/01/14 07:35:54;;;;;;;31.00;17.20;;;1.60;99.90;;;2.37;100.00;-19807.53;5038105;28;20646;-62
2022/01/14 07:38:23;;;;;;;27.13;16.60;;;1.60;99.90;;;2.43;100.00;-19809.56;5038115;28;20284;-63
2022/01/14 07:40:51;;;;;;;30.97;17.10;;;1.70;99.90;;;2.41;100.00;-19808.88;5037666;28;20311;-61
2022/01/14 07:43:20;;;;;;;31.47;18.87;;;1.70;99.90;;;2.50;100.00;-19811.97;5037569;28;20251;-63
2022/01/14 07:45:50;;;;;;;27.27;18.23;;;1.70;99.90;;;2.52;100.00;-19812.66;5037555;28;20240;-61
2022/01/14 07:48:17;;;;;;;27.73;18.00;;;1.70;99.90;;;2.50;100.00;-19811.97;5037468;28;20315;-61
2022/01/14 07:50:46;;;;;;;26.90;16.80;;;1.70;99.90;;;2.48;100.00;-19811.47;5038259;28;20237;-61
2022/01/14 07:53:14;;;;;;;36.03;20.47;;;1.70;99.90;;;2.70;100.00;-19818.81;5037359;28;20276;-61
2022/01/14 07:55:42;;;;;;;32.87;19.43;;;1.80;99.90;;;2.65;100.00;-19817.09;5037262;28;20333;-62
2022/01/14 07:58:10;;;;;;;32.87;18.53;;;1.80;99.90;;;2.65;100.00;-19817.09;5037585;28;20717;-61
2022/01/14 08:00:40;;;;;;;35.73;20.37;;;1.80;99.90;;;2.73;100.00;-19819.81;5037504;28;20313;-61
2022/01/14 08:03:09;;;;;;;33.30;19.30;;;1.90;99.90;;;2.75;100.00;-19820.34;5037389;28;20208;-63
2022/01/14 08:05:38;;;;;;;32.50;18.93;;;1.90;99.90;;;2.77;100.00;-19821.19;5037776;28;20203;-61
2022/01/14 08:08:07;;;;;;;28.07;17.10;;;1.90;99.90;;;2.82;100.00;-19822.72;5036712;28;20683;-61
2022/01/14 08:10:37;;;;;;;31.90;19.30;;;1.90;99.90;;;2.69;100.00;-19818.47;5035591;28;20227;-62
2022/01/14 08:13:05;;;;;;;31.53;19.10;;;2.00;99.90;;;2.76;100.00;-19820.84;5036492;28;20692;-61
2022/01/14 08:15:33;;;;;;;34.50;19.20;;;1.90;99.90;;;2.77;100.00;-19821.03;5036369;28;20258;-62
2022/01/14 08:18:02;;;;;;;32.50;19.60;;;1.90;99.90;;;2.77;100.00;-19821.03;5036450;28;20248;-61
2022/01/14 08:20:31;;;;;;;32.40;19.60;;;2.00;99.90;;;2.81;100.00;-19822.41;5036989;28;20252;-63
2022/01/14 08:23:00;;;;;;;32.13;19.17;;;2.00;99.90;;;2.86;100.00;-19824.09;5036326;28;20229;-61
2022/01/14 08:25:29;;;;;;;33.17;18.80;;;2.10;99.90;;;3.13;100.00;-19833.34;5036309;28;20677;-61
2022/01/14 08:27:57;;;;;;;32.63;18.80;;;2.10;99.90;;;3.06;100.00;-19830.94;5036733;28;20325;-62
2022/01/14 08:30:25;;;;;;;33.87;18.87;;;2.20;99.90;;;3.07;100.00;-19831.28;5036641;28;20290;-61
2022/01/14 08:32:53;;;;;;;31.57;18.97;;;2.20;99.90;;;3.11;100.00;-19832.81;5036808;28;20198;-62
2022/01/14 08:35:21;;;;;;;31.97;18.83;;;2.20;99.90;;;3.05;100.00;-19830.59;5034826;28;20222;-62
2022/01/14 08:37:50;;;;;;;35.17;20.13;;;2.20;99.90;;;3.08;100.00;-19831.63;5033369;28;20328;-61
2022/01/14 08:40:19;;;;;;;34.53;20.00;;;2.20;99.90;;;3.22;100.00;-19836.41;5033408;28;20320;-61
2022/01/14 08:42:52;;;;;;;34.07;19.53;;;2.20;99.90;;;3.30;100.00;-19839.16;5033499;28;20310;-61
2022/01/14 08:45:21;;;;;;;30.47;18.60;;;2.30;99.90;;;3.21;100.00;-19836.06;5033437;28;20742;-61
2022/01/14 08:47:52;;;;;;;32.83;18.77;;;2.30;99.90;;;3.27;100.00;-19838.13;5034216;28;20215;-61
2022/01/14 08:50:22;;;;;;;29.20;18.47;;;2.30;99.90;;;3.33;100.00;-19840.19;5033437;28;20198;-60
2022/01/14 08:52:52;;;;;;;31.83;20.27;;;2.40;99.90;;;3.27;100.00;-19838.13;5033126;28;20311;-61
2022/01/14 08:55:22;;;;;;;29.70;18.73;;;2.40;99.90;;;3.37;100.00;-19841.53;5032769;28;20234;-61
2022/01/14 08:57:51;;;;;;;32.77;19.10;;;2.40;99.90;;;3.36;100.00;-19841.38;5033524;28;20250;-61
2022/01/14 09:00:22;;;;;;;31.77;18.80;;;2.30;99.90;;;3.58;100.00;-19848.91;5033235;28;20873;-61
2022/01/14 09:02:50;;;;;;;33.67;19.03;;;2.40;99.90;;;3.69;100.00;-19852.47;5034156;28;20186;-65
2022/01/14 09:05:19;;;;;;;32.33;18.60;;;2.40;99.90;;;3.53;100.00;-19847.19;5033840;28;20210;-61
2022/01/14 09:07:48;;;;;;;28.00;17.97;;;2.40;99.90;;;3.50;100.00;-19846.00;5031845;28;20284;-61
2022/01/14 09:10:19;;;;;;;34.10;17.57;;;2.30;99.90;;;3.34;100.00;-19840.50;5033042;28;20313;-62
2022/01/14 09:12:48;;;;;;;33.50;19.47;;;2.30;99.90;;;3.42;100.00;-19843.25;5026979;28;20355;-60
2022/01/14 09:15:17;;;;;;;31.07;19.03;;;2.30;99.90;;;3.43;100.00;-19843.59;5022173;28;20235;-60
2022/01/14 09:17:46;;;;;;;36.70;20.73;;;2.40;99.90;;;3.32;100.00;-19839.81;5014187;28;20214;-60
2022/01/14 09:20:15;;;;;;;32.70;19.23;;;2.40;99.90;;;3.53;100.00;-19847.00;5013396;28;20334;-61
2022/01/14 09:22:47;;;;;;;31.47;19.07;;;2.40;99.90;;;3.63;100.00;-19850.59;5013510;28;20750;-61
2022/01/14 09:25:19;;;;;;;28.70;18.37;;;2.60;99.90;;;3.71;100.00;-19853.16;5012887;28;20248;-61
2022/01/14 09:27:50;;;;;;;31.43;18.27;;;2.60;99.90;;;3.71;100.00;-19853.16;5012967;28;20228;-60
2022/01/14 09:30:19;;;;;;;29.30;18.43;;;2.70;99.90;;;3.81;100.00;-19856.59;5013073;28;20227;-60
2022/01/14 09:32:48;;;;;;;30.17;17.03;;;2.70;99.90;;;3.80;100.00;-19856.25;5013574;28;20234;-66
2022/01/14 09:35:17;;;;;;;29.73;17.27;;;2.80;99.90;;;3.82;100.00;-19856.94;5031271;28;20251;-66
2022/01/14 09:37:47;;;;;;;28.20;17.97;;;2.80;99.90;;;4.00;100.00;-19863.06;5032474;28;20258;-66
2022/01/14 09:40:18;;;;;;;29.37;18.03;;;2.80;99.90;;;4.03;100.00;-19864.09;5032487;28;20222;-66
2022/01/14 09:42:48;;;;;;;26.27;17.10;;;2.90;99.90;;;4.04;100.00;-19864.44;5032364;28;20683;-65
2022/01/14 09:45:17;;;;;;;29.23;17.93;;;3.00;99.90;;;4.09;100.00;-19866.16;5031406;28;20724;-66
2022/01/14 09:47:49;;;;;;;30.10;17.97;;;2.90;99.90;;;4.07;100.00;-19865.47;5031630;28;20878;-67
2022/01/14 09:50:18;;;;;;;29.83;20.50;;;3.00;99.90;;;3.95;100.00;-19861.19;5032468;28;20208;-66
2022/01/14 09:52:49;;;;;;;32.30;19.37;;;3.00;99.90;;;4.02;100.00;-19863.75;5032522;28;20253;-68
2022/01/14 09:55:20;;;;;;;27.93;18.67;;;3.00;99.90;;;4.19;100.00;-19869.41;5031863;28;20237;-67
2022/01/14 09:57:48;;;;;;;31.47;18.07;;;3.00;99.90;;;4.22;100.00;-19870.59;5032289;28;20651;-66
2022/01/14 10:00:17;;;;;;;31.40;18.60;;;3.00;99.90;;;4.13;100.00;-19867.53;5031999;28;20253;-66
2022/01/14 10:02:46;;;;;;;31.27;17.83;;;3.10;99.90;;;4.20;100.00;-19869.75;5032807;28;20207;-67
2022/01/14 10:05:34;;;;;;;32.43;19.27;;;3.10;99.90;;;4.31;100.00;-19873.66;5031883;28;20288;-66
2022/01/14 10:08:17;;;;;;;28.63;17.50;;;3.10;99.90;;;4.30;100.00;-19873.16;5031767;28;20691;-67
2022/01/14 10:10:51;;;;;;;30.40;19.13;;;3.20;99.90;;;4.31;100.00;-19873.66;5031855;28;20236;-67
2022/01/14 10:13:22;;;;;;;31.83;19.47;;;3.20;99.90;;;4.41;100.00;-19876.94;5031669;28;20275;-66
2022/01/14 10:15:53;;;;;;;30.80;18.57;;;3.20;99.90;;;4.25;100.00;-19871.44;5031486;28;20724;-65
2022/01/14 10:18:23;;;;;;;29.80;18.57;;;3.30;99.90;;;4.25;100.00;-19871.63;5031716;28;20739;-66
2022/01/14 10:20:53;;;;;;;31.53;18.83;;;3.30;99.90;;;4.20;100.00;-19869.75;5031797;28;20232;-67
2022/01/14 10:23:40;;;;;;;35.00;20.77;;;3.20;99.90;;;4.27;100.00;-19872.31;5031958;28;20304;-67
2022/01/14 10:26:09;;;;;;;30.83;18.43;;;3.20;99.90;;;4.28;100.00;-19872.47;5031405;28;20230;-67